Time,TemperatureF,DewpointF,PressureIn,WindDirection,WindDirectionDegrees,WindSpeedMPH,WindSpeedGustMPH,Humidity,HourlyPrecipIn,Conditions,Clouds,dailyrainin,SoftwareType,DateUTC
2013-11-01 09:06:00,58.8,58.5,29.94,NW,325,0.0,-999.0,99,0.00,,,0.01,WeatherSnoop3.0,2013-11-01 14:06:00,
2013-11-01 09:07:00,58.7,58.4,29.94,NW,325,0.0,2.0,99,0.00,,,0.01,WeatherSnoop3.0,2013-11-01 14:07:00,
2013-11-01 09:08:00,58.8,58.5,29.94,NW,325,0.0,2.0,99,0.00,,,0.01,WeatherSnoop3.0,2013-11-01 14:08:00,
2013-11-01 09:13:00,58.9,58.6,29.94,NW,325,0.0,2.0,99,0.00,,,0.01,WeatherSnoop3.0,2013-11-01 14:13:00,
2013-11-01 09:18:00,59.1,58.8,29.94,NNE,21,3.0,3.0,99,0.00,,,0.01,WeatherSnoop3.0,2013-11-01 14:18:00,
2013-11-01 09:23:00,59.3,59.0,29.95,NE,48,2.0,3.0,99,0.00,,,0.01,WeatherSnoop3.0,2013-11-01 14:23:00,
2013-11-01 09:28:00,59.5,59.2,29.95,NW,321,2.0,3.0,99,0.00,,,0.01,WeatherSnoop3.0,2013-11-01 14:28:00,
2013-11-01 09:33:00,59.9,59.6,29.95,NNE,15,3.0,3.0,99,0.00,,,0.01,WeatherSnoop3.0,2013-11-01 14:33:00,
2013-11-01 09:38:00,60.0,59.7,29.95,ENE,60,2.0,4.0,99,0.00,,,0.01,WeatherSnoop3.0,2013-11-01 14:38:00,
2013-11-01 09:43:00,60.2,59.9,29.95,North,9,3.0,4.0,99,0.00,,,0.01,WeatherSnoop3.0,2013-11-01 14:43:00,
2013-11-01 09:48:00,60.4,60.1,29.95,NNW,346,2.0,4.0,99,0.00,,,0.01,WeatherSnoop3.0,2013-11-01 14:48:00,
2013-11-01 09:53:00,60.8,60.5,29.96,NNE,32,2.0,4.0,99,0.00,,,0.01,WeatherSnoop3.0,2013-11-01 14:53:00,
2013-11-01 09:58:00,61.0,60.4,29.95,ENE,59,1.0,4.0,98,0.00,,,0.01,WeatherSnoop3.0,2013-11-01 14:58:00,
2013-11-01 10:03:00,61.3,60.7,29.96,ENE,73,3.0,4.0,98,0.00,,,0.01,WeatherSnoop3.0,2013-11-01 15:03:00,
2013-11-01 10:08:00,61.8,61.2,29.96,NW,323,3.0,5.0,98,0.00,,,0.01,WeatherSnoop3.0,2013-11-01 15:08:00,
2013-11-01 10:13:00,62.0,60.5,29.96,NNW,346,2.0,5.0,95,0.00,,,0.01,WeatherSnoop3.0,2013-11-01 15:13:00,
2013-11-01 10:18:00,62.2,60.7,29.96,NW,323,2.0,5.0,95,0.00,,,0.01,WeatherSnoop3.0,2013-11-01 15:18:00,
2013-11-01 10:23:00,62.2,60.4,29.96,WNW,292,2.0,5.0,94,0.00,,,0.01,WeatherSnoop3.0,2013-11-01 15:23:00,
2013-11-01 10:28:00,62.4,60.9,29.96,NW,319,4.0,4.0,95,0.00,,,0.01,WeatherSnoop3.0,2013-11-01 15:28:00,
2013-11-01 10:33:00,62.7,60.9,29.96,NNW,338,2.0,4.0,94,0.00,,,0.01,WeatherSnoop3.0,2013-11-01 15:33:00,
2013-11-01 10:38:00,63.1,61.0,29.96,NW,318,0.0,5.0,93,0.00,,,0.01,WeatherSnoop3.0,2013-11-01 15:38:00,
2013-11-01 10:43:00,63.3,61.5,29.96,West,281,2.0,4.0,94,0.00,,,0.01,WeatherSnoop3.0,2013-11-01 15:43:00,
2013-11-01 10:48:00,63.7,61.0,29.96,North,355,2.0,6.0,91,0.00,,,0.01,WeatherSnoop3.0,2013-11-01 15:48:00,
2013-11-01 10:53:00,63.9,61.5,29.96,NNW,342,4.0,5.0,92,0.00,,,0.01,WeatherSnoop3.0,2013-11-01 15:53:00,
2013-11-01 10:58:00,64.0,60.7,29.96,NE,48,3.0,4.0,89,0.00,,,0.01,WeatherSnoop3.0,2013-11-01 15:58:00,
2013-11-01 11:03:00,64.2,60.9,29.96,North,10,3.0,5.0,89,0.00,,,0.01,WeatherSnoop3.0,2013-11-01 16:03:00,
2013-11-01 11:08:00,64.5,60.9,29.96,North,355,0.0,5.0,88,0.00,,,0.01,WeatherSnoop3.0,2013-11-01 16:08:00,
2013-11-01 11:13:00,64.7,60.7,29.96,ENE,67,2.0,4.0,87,0.00,,,0.01,WeatherSnoop3.0,2013-11-01 16:13:00,
2013-11-01 11:18:00,65.0,60.7,29.96,NE,43,1.0,5.0,86,0.00,,,0.01,WeatherSnoop3.0,2013-11-01 16:18:00,
2013-11-01 11:23:00,65.3,61.3,29.96,North,355,2.0,5.0,87,0.00,,,0.01,WeatherSnoop3.0,2013-11-01 16:23:00,
2013-11-01 11:28:00,65.5,60.9,29.96,NNW,329,2.0,4.0,85,0.00,,,0.01,WeatherSnoop3.0,2013-11-01 16:28:00,
2013-11-01 11:33:00,65.6,61.0,29.96,WNW,296,3.0,4.0,85,0.00,,,0.01,WeatherSnoop3.0,2013-11-01 16:33:00,
2013-11-01 11:38:00,65.8,61.5,29.95,East,92,1.0,4.0,86,0.00,,,0.01,WeatherSnoop3.0,2013-11-01 16:38:00,
2013-11-01 11:43:00,66.1,60.4,29.95,NNW,342,3.0,4.0,82,0.00,,,0.01,WeatherSnoop3.0,2013-11-01 16:43:00,
2013-11-01 11:48:00,66.3,60.3,29.95,NNW,327,1.0,4.0,81,0.00,,,0.01,WeatherSnoop3.0,2013-11-01 16:48:00,
2013-11-01 11:53:00,66.5,60.1,29.95,NNE,22,1.0,4.0,80,0.00,,,0.01,WeatherSnoop3.0,2013-11-01 16:53:00,
2013-11-01 11:58:00,66.8,60.8,29.95,WSW,238,1.0,3.0,81,0.00,,,0.01,WeatherSnoop3.0,2013-11-01 16:58:00,
2013-11-01 12:03:00,67.5,62.1,29.95,WSW,243,1.0,3.0,83,0.00,,,0.01,WeatherSnoop3.0,2013-11-01 17:03:00,
2013-11-01 12:08:00,67.8,61.7,29.94,NW,315,1.0,3.0,81,0.00,,,0.01,WeatherSnoop3.0,2013-11-01 17:08:00,
2013-11-01 12:13:00,68.1,61.3,29.94,WSW,244,3.0,8.0,79,0.00,,,0.01,WeatherSnoop3.0,2013-11-01 17:13:00,
2013-11-01 12:18:00,68.4,59.8,29.94,WNW,303,3.0,8.0,74,0.00,,,0.01,WeatherSnoop3.0,2013-11-01 17:18:00,
2013-11-01 12:23:00,68.6,60.4,29.94,WNW,292,2.0,5.0,75,0.00,,,0.01,WeatherSnoop3.0,2013-11-01 17:23:00,
2013-11-01 12:28:00,68.9,60.3,29.94,West,273,1.0,5.0,74,0.00,,,0.01,WeatherSnoop3.0,2013-11-01 17:28:00,
2013-11-01 12:33:00,69.3,58.7,29.94,NW,313,4.0,5.0,69,0.00,,,0.01,WeatherSnoop3.0,2013-11-01 17:33:00,
2013-11-01 12:38:00,69.2,59.4,29.93,NNE,19,2.0,5.0,71,0.00,,,0.01,WeatherSnoop3.0,2013-11-01 17:38:00,
2013-11-01 12:43:00,69.8,59.2,29.93,South,173,0.0,7.0,69,0.00,,,0.01,WeatherSnoop3.0,2013-11-01 17:43:00,
2013-11-01 12:48:00,70.6,58.3,29.93,West,269,2.0,7.0,65,0.00,,,0.01,WeatherSnoop3.0,2013-11-01 17:48:00,
2013-11-01 12:53:00,71.0,59.1,29.93,West,279,2.0,4.0,66,0.00,,,0.01,WeatherSnoop3.0,2013-11-01 17:53:00,
2013-11-01 12:58:00,71.7,58.4,29.92,SSW,197,3.0,4.0,63,0.00,,,0.01,WeatherSnoop3.0,2013-11-01 17:58:00,
2013-11-01 13:03:00,72.8,59.5,29.92,SSW,200,3.0,4.0,63,0.00,,,0.01,WeatherSnoop3.0,2013-11-01 18:03:00,
2013-11-01 13:08:00,72.8,58.6,29.92,West,265,1.0,4.0,61,0.00,,,0.01,WeatherSnoop3.0,2013-11-01 18:08:00,
2013-11-01 13:13:00,73.3,60.4,29.92,NW,306,1.0,4.0,64,0.00,,,0.01,WeatherSnoop3.0,2013-11-01 18:13:00,
2013-11-01 13:18:00,73.5,58.7,29.92,West,270,0.0,4.0,60,0.00,,,0.01,WeatherSnoop3.0,2013-11-01 18:18:00,
2013-11-01 13:23:00,73.8,57.6,29.92,WNW,284,2.0,4.0,57,0.00,,,0.01,WeatherSnoop3.0,2013-11-01 18:23:00,
2013-11-01 13:28:00,74.4,58.2,29.91,West,280,1.0,5.0,57,0.00,,,0.01,WeatherSnoop3.0,2013-11-01 18:28:00,
2013-11-01 13:33:00,73.7,57.0,29.91,WNW,302,3.0,8.0,56,0.00,,,0.01,WeatherSnoop3.0,2013-11-01 18:33:00,
2013-11-01 13:38:00,73.4,57.2,29.91,West,271,2.0,8.0,57,0.00,,,0.01,WeatherSnoop3.0,2013-11-01 18:38:00,
2013-11-01 13:43:00,73.9,56.2,29.90,WNW,302,4.0,6.0,54,0.00,,,0.01,WeatherSnoop3.0,2013-11-01 18:43:00,
2013-11-01 13:48:00,74.1,58.4,29.90,West,281,3.0,6.0,58,0.00,,,0.01,WeatherSnoop3.0,2013-11-01 18:48:00,
2013-11-01 13:53:00,74.5,56.7,29.90,NW,317,3.0,5.0,54,0.00,,,0.01,WeatherSnoop3.0,2013-11-01 18:53:00,
2013-11-01 13:58:00,74.4,56.1,29.90,WNW,303,1.0,6.0,53,0.00,,,0.01,WeatherSnoop3.0,2013-11-01 18:58:00,
2013-11-01 14:03:00,74.3,58.6,29.89,WSW,248,2.0,6.0,58,0.00,,,0.01,WeatherSnoop3.0,2013-11-01 19:03:00,
2013-11-01 14:08:00,75.3,57.5,29.89,WNW,298,4.0,4.0,54,0.00,,,0.01,WeatherSnoop3.0,2013-11-01 19:08:00,
2013-11-01 14:13:00,75.7,57.3,29.89,WNW,303,4.0,6.0,53,0.00,,,0.01,WeatherSnoop3.0,2013-11-01 19:13:00,
2013-11-01 14:18:00,75.1,56.8,29.89,NW,314,9.0,9.0,53,0.00,,,0.01,WeatherSnoop3.0,2013-11-01 19:18:00,
2013-11-01 14:23:00,74.7,56.4,29.89,SSW,200,2.0,9.0,53,0.00,,,0.01,WeatherSnoop3.0,2013-11-01 19:23:00,
2013-11-01 14:28:00,75.0,56.2,29.89,NW,309,1.0,8.0,52,0.00,,,0.01,WeatherSnoop3.0,2013-11-01 19:28:00,
2013-11-01 14:33:00,74.8,55.4,29.89,NW,325,5.0,8.0,51,0.00,,,0.01,WeatherSnoop3.0,2013-11-01 19:33:00,
2013-11-01 14:38:00,74.9,57.6,29.89,WNW,290,3.0,8.0,55,0.00,,,0.01,WeatherSnoop3.0,2013-11-01 19:38:00,
2013-11-01 14:43:00,75.6,56.7,29.89,West,279,4.0,8.0,52,0.00,,,0.01,WeatherSnoop3.0,2013-11-01 19:43:00,
2013-11-01 14:48:00,75.7,56.8,29.89,WSW,254,1.0,7.0,52,0.00,,,0.01,WeatherSnoop3.0,2013-11-01 19:48:00,
2013-11-01 14:53:00,76.6,57.6,29.89,WNW,292,1.0,7.0,52,0.00,,,0.01,WeatherSnoop3.0,2013-11-01 19:53:00,
2013-11-01 14:58:00,76.4,55.2,29.88,West,277,3.0,9.0,48,0.00,,,0.01,WeatherSnoop3.0,2013-11-01 19:58:00,
2013-11-01 15:03:00,76.3,54.0,29.88,NW,318,2.0,9.0,46,0.00,,,0.01,WeatherSnoop3.0,2013-11-01 20:03:00,
2013-11-01 15:08:00,75.7,52.8,29.88,WNW,292,2.0,10.0,45,0.00,,,0.01,WeatherSnoop3.0,2013-11-01 20:08:00,
2013-11-01 15:13:00,75.3,53.7,29.88,NW,323,6.0,9.0,47,0.00,,,0.01,WeatherSnoop3.0,2013-11-01 20:13:00,
2013-11-01 15:18:00,75.4,54.9,29.88,WNW,298,5.0,9.0,49,0.00,,,0.01,WeatherSnoop3.0,2013-11-01 20:18:00,
2013-11-01 15:23:00,75.9,54.8,29.88,WNW,283,2.0,8.0,48,0.00,,,0.01,WeatherSnoop3.0,2013-11-01 20:23:00,
2013-11-01 15:28:00,75.8,54.1,29.88,NW,315,8.0,9.0,47,0.00,,,0.01,WeatherSnoop3.0,2013-11-01 20:28:00,
2013-11-01 15:33:00,75.3,53.7,29.88,West,279,2.0,9.0,47,0.00,,,0.01,WeatherSnoop3.0,2013-11-01 20:33:00,
2013-11-01 15:38:00,75.5,53.8,29.88,WSW,242,3.0,8.0,47,0.00,,,0.01,WeatherSnoop3.0,2013-11-01 20:38:00,
2013-11-01 15:43:00,76.2,54.5,29.88,NW,323,1.0,7.0,47,0.00,,,0.01,WeatherSnoop3.0,2013-11-01 20:43:00,
2013-11-01 15:48:00,76.6,54.8,29.88,WNW,300,1.0,6.0,47,0.00,,,0.01,WeatherSnoop3.0,2013-11-01 20:48:00,
2013-11-01 15:53:00,76.8,54.4,29.88,NW,319,6.0,10.0,46,0.00,,,0.01,WeatherSnoop3.0,2013-11-01 20:53:00,
2013-11-01 15:58:00,75.6,52.7,29.87,NW,320,5.0,10.0,45,0.00,,,0.01,WeatherSnoop3.0,2013-11-01 20:58:00,
2013-11-01 16:03:00,74.7,52.5,29.88,NNW,331,8.0,11.0,46,0.00,,,0.01,WeatherSnoop3.0,2013-11-01 21:03:00,
2013-11-01 16:08:00,74.4,54.5,29.87,NNW,328,6.0,11.0,50,0.00,,,0.01,WeatherSnoop3.0,2013-11-01 21:08:00,
2013-11-01 16:13:00,74.4,53.4,29.87,NW,326,6.0,10.0,48,0.00,,,0.01,WeatherSnoop3.0,2013-11-01 21:13:00,
2013-11-01 16:18:00,74.6,54.2,29.87,NW,312,5.0,10.0,49,0.00,,,0.01,WeatherSnoop3.0,2013-11-01 21:18:00,
2013-11-01 16:23:00,74.8,53.2,29.87,NW,318,8.0,9.0,47,0.00,,,0.01,WeatherSnoop3.0,2013-11-01 21:23:00,
2013-11-01 16:28:00,74.4,53.4,29.87,NNW,333,8.0,10.0,48,0.00,,,0.01,WeatherSnoop3.0,2013-11-01 21:28:00,
2013-11-01 16:33:00,74.2,54.3,29.87,North,350,4.0,10.0,50,0.00,,,0.01,WeatherSnoop3.0,2013-11-01 21:33:00,
2013-11-01 16:38:00,74.3,53.9,29.87,NNW,342,5.0,9.0,49,0.00,,,0.01,WeatherSnoop3.0,2013-11-01 21:38:00,
2013-11-01 16:43:00,74.4,54.0,29.87,NW,310,3.0,9.0,49,0.00,,,0.01,WeatherSnoop3.0,2013-11-01 21:43:00,
2013-11-01 16:48:00,74.5,52.9,29.87,NNW,342,6.0,8.0,47,0.00,,,0.01,WeatherSnoop3.0,2013-11-01 21:48:00,
2013-11-01 16:53:00,74.2,53.8,29.87,NNW,336,4.0,8.0,49,0.00,,,0.01,WeatherSnoop3.0,2013-11-01 21:53:00,
2013-11-01 16:58:00,74.0,54.2,29.87,NNW,328,3.0,8.0,50,0.00,,,0.01,WeatherSnoop3.0,2013-11-01 21:58:00,
2013-11-01 17:03:00,73.8,54.5,29.87,NNW,342,8.0,9.0,51,0.00,,,0.01,WeatherSnoop3.0,2013-11-01 22:03:00,
2013-11-01 17:08:00,73.3,55.6,29.87,NNW,340,5.0,9.0,54,0.00,,,0.01,WeatherSnoop3.0,2013-11-01 22:08:00,
2013-11-01 17:13:00,72.8,54.1,29.87,NNW,327,3.0,6.0,52,0.00,,,0.01,WeatherSnoop3.0,2013-11-01 22:13:00,
2013-11-01 17:18:00,72.6,54.0,29.87,NNW,332,3.0,6.0,52,0.00,,,0.01,WeatherSnoop3.0,2013-11-01 22:18:00,
2013-11-01 17:23:00,72.4,55.8,29.87,NNW,342,2.0,4.0,56,0.00,,,0.01,WeatherSnoop3.0,2013-11-01 22:23:00,
2013-11-01 17:28:00,72.0,54.9,29.87,NNW,333,3.0,5.0,55,0.00,,,0.01,WeatherSnoop3.0,2013-11-01 22:28:00,
2013-11-01 17:33:00,71.8,55.7,29.87,NNW,345,1.0,5.0,57,0.00,,,0.01,WeatherSnoop3.0,2013-11-01 22:33:00,
2013-11-01 17:38:00,71.6,56.5,29.87,NNW,345,1.0,3.0,59,0.00,,,0.01,WeatherSnoop3.0,2013-11-01 22:38:00,
2013-11-01 17:43:00,71.4,58.6,29.87,NNW,345,0.0,1.0,64,0.00,,,0.01,WeatherSnoop3.0,2013-11-01 22:43:00,
2013-11-01 17:48:00,71.2,58.4,29.87,NNW,345,0.0,1.0,64,0.00,,,0.01,WeatherSnoop3.0,2013-11-01 22:48:00,
2013-11-01 17:53:00,70.8,59.3,29.87,NNW,345,0.0,1.0,67,0.00,,,0.01,WeatherSnoop3.0,2013-11-01 22:53:00,
2013-11-01 17:58:00,70.4,59.3,29.88,NNW,345,0.0,1.0,68,0.00,,,0.01,WeatherSnoop3.0,2013-11-01 22:58:00,
2013-11-01 18:03:00,70.0,59.8,29.88,NNW,345,0.0,1.0,70,0.00,,,0.01,WeatherSnoop3.0,2013-11-01 23:03:00,
2013-11-01 18:08:00,69.5,59.7,29.88,NNW,345,0.0,1.0,71,0.00,,,0.01,WeatherSnoop3.0,2013-11-01 23:08:00,
2013-11-01 18:13:00,68.9,59.9,29.88,NNW,345,0.0,1.0,73,0.00,,,0.01,WeatherSnoop3.0,2013-11-01 23:13:00,
2013-11-01 18:18:00,68.3,59.7,29.88,NNW,345,1.0,1.0,74,0.00,,,0.01,WeatherSnoop3.0,2013-11-01 23:18:00,
2013-11-01 18:23:00,67.7,59.5,29.88,NNW,345,0.0,2.0,75,0.00,,,0.01,WeatherSnoop3.0,2013-11-01 23:23:00,
2013-11-01 18:28:00,67.0,58.8,29.88,NNW,345,0.0,2.0,75,0.00,,,0.01,WeatherSnoop3.0,2013-11-01 23:28:00,
2013-11-01 18:33:00,66.4,58.6,29.88,NNW,345,0.0,1.0,76,0.00,,,0.01,WeatherSnoop3.0,2013-11-01 23:33:00,
2013-11-01 18:38:00,65.7,58.3,29.89,NNW,347,0.0,1.0,77,0.00,,,0.01,WeatherSnoop3.0,2013-11-01 23:38:00,
2013-11-01 18:43:00,65.0,57.6,29.89,NNW,348,0.0,1.0,77,0.00,,,0.01,WeatherSnoop3.0,2013-11-01 23:43:00,
2013-11-01 18:48:00,64.5,57.1,29.89,NNW,348,1.0,1.0,77,0.00,,,0.01,WeatherSnoop3.0,2013-11-01 23:48:00,
2013-11-01 18:53:00,64.0,57.4,29.89,NNW,348,0.0,1.0,79,0.00,,,0.01,WeatherSnoop3.0,2013-11-01 23:53:00,
2013-11-01 18:58:00,63.4,56.8,29.89,NNW,348,0.0,0.0,79,0.00,,,0.01,WeatherSnoop3.0,2013-11-01 23:58:00,
2013-11-01 19:03:00,62.9,56.3,29.89,NNW,348,0.0,0.0,79,0.00,,,0.01,WeatherSnoop3.0,2013-11-02 00:03:00,
2013-11-01 19:08:00,62.5,56.6,29.90,NNW,348,0.0,0.0,81,0.00,,,0.01,WeatherSnoop3.0,2013-11-02 00:08:00,
2013-11-01 19:13:00,62.0,57.1,29.90,NNW,348,0.0,0.0,84,0.00,,,0.01,WeatherSnoop3.0,2013-11-02 00:13:00,
2013-11-01 19:18:00,61.6,57.0,29.90,NNW,348,0.0,0.0,85,0.00,,,0.01,WeatherSnoop3.0,2013-11-02 00:18:00,
2013-11-01 19:23:00,61.2,56.7,29.91,NNW,348,0.0,0.0,85,0.00,,,0.01,WeatherSnoop3.0,2013-11-02 00:23:00,
2013-11-01 19:28:00,60.8,56.3,29.91,NNW,348,0.0,0.0,85,0.00,,,0.01,WeatherSnoop3.0,2013-11-02 00:28:00,
2013-11-01 19:33:00,60.5,56.3,29.91,NNW,348,0.0,0.0,86,0.00,,,0.01,WeatherSnoop3.0,2013-11-02 00:33:00,
2013-11-01 19:38:00,60.2,56.0,29.91,NNW,348,0.0,0.0,86,0.00,,,0.01,WeatherSnoop3.0,2013-11-02 00:38:00,
2013-11-01 19:43:00,59.8,55.9,29.92,NNW,348,0.0,0.0,87,0.00,,,0.01,WeatherSnoop3.0,2013-11-02 00:43:00,
2013-11-01 19:48:00,59.6,56.0,29.92,NNW,348,0.0,0.0,88,0.00,,,0.01,WeatherSnoop3.0,2013-11-02 00:48:00,
2013-11-01 19:53:00,59.3,55.7,29.92,NNW,348,0.0,0.0,88,0.00,,,0.01,WeatherSnoop3.0,2013-11-02 00:53:00,
2013-11-01 19:58:00,59.1,55.9,29.92,NNW,348,0.0,0.0,89,0.00,,,0.01,WeatherSnoop3.0,2013-11-02 00:58:00,
2013-11-01 20:03:00,58.9,55.7,29.92,NNW,348,0.0,0.0,89,0.00,,,0.01,WeatherSnoop3.0,2013-11-02 01:03:00,
2013-11-01 20:08:00,58.6,55.7,29.92,NNW,348,0.0,0.0,90,0.00,,,0.01,WeatherSnoop3.0,2013-11-02 01:08:00,
2013-11-01 20:13:00,58.4,55.8,29.92,NNE,28,0.0,0.0,91,0.00,,,0.01,WeatherSnoop3.0,2013-11-02 01:13:00,
2013-11-01 20:18:00,58.3,56.0,29.92,ENE,57,0.0,0.0,92,0.00,,,0.01,WeatherSnoop3.0,2013-11-02 01:18:00,
2013-11-01 20:23:00,58.3,56.0,29.92,ENE,57,0.0,0.0,92,0.00,,,0.01,WeatherSnoop3.0,2013-11-02 01:23:00,
2013-11-01 20:28:00,58.2,55.9,29.92,East,87,2.0,2.0,92,0.00,,,0.01,WeatherSnoop3.0,2013-11-02 01:28:00,
2013-11-01 20:33:00,58.1,55.5,29.93,East,83,2.0,2.0,91,0.00,,,0.01,WeatherSnoop3.0,2013-11-02 01:33:00,
2013-11-01 20:38:00,57.9,55.6,29.93,East,96,1.0,2.0,92,0.00,,,0.01,WeatherSnoop3.0,2013-11-02 01:38:00,
2013-11-01 20:43:00,57.7,55.7,29.93,East,92,0.0,3.0,93,0.00,,,0.01,WeatherSnoop3.0,2013-11-02 01:43:00,
2013-11-01 20:48:00,57.6,55.6,29.93,East,90,0.0,2.0,93,0.00,,,0.01,WeatherSnoop3.0,2013-11-02 01:48:00,
2013-11-01 20:53:00,57.5,55.5,29.93,East,90,0.0,2.0,93,0.00,,,0.01,WeatherSnoop3.0,2013-11-02 01:53:00,
2013-11-01 20:58:00,57.5,55.5,29.93,East,90,0.0,2.0,93,0.00,,,0.01,WeatherSnoop3.0,2013-11-02 01:58:00,
2013-11-01 21:03:00,57.5,55.8,29.93,East,90,1.0,2.0,94,0.00,,,0.01,WeatherSnoop3.0,2013-11-02 02:03:00,
2013-11-01 21:08:00,57.4,55.4,29.93,East,90,0.0,2.0,93,0.00,,,0.01,WeatherSnoop3.0,2013-11-02 02:08:00,
2013-11-01 21:13:00,57.3,55.3,29.93,East,90,0.0,1.0,93,0.00,,,0.01,WeatherSnoop3.0,2013-11-02 02:13:00,
2013-11-01 21:18:00,57.1,55.1,29.94,East,91,1.0,2.0,93,0.00,,,0.01,WeatherSnoop3.0,2013-11-02 02:18:00,
2013-11-01 21:23:00,56.9,54.9,29.94,East,91,0.0,2.0,93,0.00,,,0.01,WeatherSnoop3.0,2013-11-02 02:23:00,
2013-11-01 21:28:00,56.8,55.1,29.94,East,91,0.0,1.0,94,0.00,,,0.01,WeatherSnoop3.0,2013-11-02 02:28:00,
2013-11-01 21:33:00,56.6,54.6,29.94,East,90,0.0,1.0,93,0.00,,,0.01,WeatherSnoop3.0,2013-11-02 02:33:00,
2013-11-01 21:38:00,56.4,54.4,29.95,East,91,0.0,1.0,93,0.00,,,0.01,WeatherSnoop3.0,2013-11-02 02:38:00,
2013-11-01 21:43:00,56.2,54.2,29.95,East,91,0.0,0.0,93,0.00,,,0.01,WeatherSnoop3.0,2013-11-02 02:43:00,
2013-11-01 21:48:00,56.0,54.0,29.95,East,91,0.0,0.0,93,0.00,,,0.01,WeatherSnoop3.0,2013-11-02 02:48:00,
2013-11-01 21:53:00,55.9,53.9,29.95,East,91,0.0,0.0,93,0.00,,,0.01,WeatherSnoop3.0,2013-11-02 02:53:00,
2013-11-01 21:58:00,55.8,54.1,29.95,East,91,0.0,0.0,94,0.00,,,0.01,WeatherSnoop3.0,2013-11-02 02:58:00,
2013-11-01 22:03:00,55.7,54.0,29.96,East,91,0.0,0.0,94,0.00,,,0.01,WeatherSnoop3.0,2013-11-02 03:03:00,
2013-11-01 22:08:00,55.6,53.9,29.96,East,91,0.0,0.0,94,0.00,,,0.01,WeatherSnoop3.0,2013-11-02 03:08:00,
2013-11-01 22:13:00,55.4,53.7,29.96,East,91,0.0,0.0,94,0.00,,,0.01,WeatherSnoop3.0,2013-11-02 03:13:00,
2013-11-01 22:18:00,55.3,53.6,29.96,East,91,0.0,0.0,94,0.00,,,0.01,WeatherSnoop3.0,2013-11-02 03:18:00,
2013-11-01 22:23:00,55.2,53.5,29.97,East,91,0.0,0.0,94,0.00,,,0.01,WeatherSnoop3.0,2013-11-02 03:23:00,
2013-11-01 22:28:00,55.1,53.7,29.97,East,90,0.0,0.0,95,0.00,,,0.01,WeatherSnoop3.0,2013-11-02 03:28:00,
2013-11-01 22:33:00,55.1,54.0,29.97,East,91,0.0,0.0,96,0.00,,,0.01,WeatherSnoop3.0,2013-11-02 03:33:00,
2013-11-01 22:38:00,55.1,54.0,29.97,East,91,0.0,0.0,96,0.00,,,0.01,WeatherSnoop3.0,2013-11-02 03:38:00,
2013-11-01 22:43:00,55.0,53.9,29.97,East,91,0.0,0.0,96,0.00,,,0.01,WeatherSnoop3.0,2013-11-02 03:43:00,
2013-11-01 22:48:00,55.1,54.3,29.98,East,91,0.0,0.0,97,0.00,,,0.01,WeatherSnoop3.0,2013-11-02 03:48:00,
2013-11-01 22:53:00,55.2,54.4,29.98,East,90,0.0,0.0,97,0.00,,,0.01,WeatherSnoop3.0,2013-11-02 03:53:00,
2013-11-01 22:58:00,55.2,54.4,29.98,East,91,0.0,0.0,97,0.00,,,0.01,WeatherSnoop3.0,2013-11-02 03:58:00,
2013-11-01 23:01:00,55.2,54.4,29.98,East,91,0.0,0.0,97,0.00,,,0.01,WeatherSnoop3.0,2013-11-02 04:01:00,
2013-11-01 23:02:00,55.1,54.3,29.98,East,91,0.0,0.0,97,0.00,,,0.01,WeatherSnoop3.0,2013-11-02 04:02:00,
2013-11-01 23:04:00,55.1,54.3,29.98,East,91,0.0,0.0,97,0.00,,,0.01,WeatherSnoop3.0,2013-11-02 04:04:00,
2013-11-01 23:09:00,55.2,54.4,29.98,East,91,0.0,0.0,97,0.00,,,0.01,WeatherSnoop3.0,2013-11-02 04:09:00,
2013-11-01 23:14:00,55.2,54.4,29.98,East,91,0.0,0.0,97,0.00,,,0.01,WeatherSnoop3.0,2013-11-02 04:14:00,
2013-11-01 23:19:00,55.2,54.4,29.98,East,91,1.0,2.0,97,0.00,,,0.01,WeatherSnoop3.0,2013-11-02 04:19:00,
2013-11-01 23:24:00,55.1,54.3,29.98,East,91,0.0,2.0,97,0.00,,,0.01,WeatherSnoop3.0,2013-11-02 04:24:00,
2013-11-01 23:29:00,55.0,54.2,29.98,East,91,0.0,1.0,97,0.00,,,0.01,WeatherSnoop3.0,2013-11-02 04:29:00,
2013-11-01 23:34:00,54.9,54.1,29.98,East,91,0.0,1.0,97,0.00,,,0.01,WeatherSnoop3.0,2013-11-02 04:34:00,
2013-11-01 23:39:00,54.8,53.7,29.98,East,91,0.0,0.0,96,0.00,,,0.01,WeatherSnoop3.0,2013-11-02 04:39:00,
2013-11-01 23:44:00,54.6,53.5,29.98,East,91,0.0,0.0,96,0.00,,,0.01,WeatherSnoop3.0,2013-11-02 04:44:00,
2013-11-01 23:49:00,54.5,53.4,29.98,East,91,0.0,0.0,96,0.00,,,0.01,WeatherSnoop3.0,2013-11-02 04:49:00,
2013-11-01 23:54:00,54.5,53.7,29.98,East,91,0.0,0.0,97,0.00,,,0.01,WeatherSnoop3.0,2013-11-02 04:54:00,
2013-11-01 23:59:00,54.3,53.2,29.97,East,91,0.0,0.0,96,0.00,,,0.01,WeatherSnoop3.0,2013-11-02 04:59:00,